Time;durP1;ratioP1;P1;durP2;ratioP2;P2;SDS_P1;SDS_P2;PMS_P1;PMS_P2;Temp;Humidity;BMP_temperature;BMP_pressure;BME280_temperature;BME280_humidity;BME280_pressure;Samples;Min_cycle;Max_cycle;Signal;HPM_P1;HPM_P2
2021/07/08 00:00:09;;;;;;;0.68;0.60;;;26.60;46.30;;;;;;5083789;28;20023;-72
2021/07/08 00:02:35;;;;;;;0.93;0.70;;;26.70;46.60;;;;;;5076003;28;20098;-72
2021/07/08 00:05:01;;;;;;;3.58;0.80;;;26.70;46.50;;;;;;5084534;28;20028;-72
2021/07/08 00:07:27;;;;;;;1.90;0.85;;;26.60;46.40;;;;;;5077211;28;20064;-72
2021/07/08 00:09:53;;;;;;;3.47;0.90;;;26.60;46.40;;;;;;5086819;28;20047;-71
2021/07/08 00:12:18;;;;;;;0.70;0.70;;;26.60;46.70;;;;;;5074507;28;20116;-72
2021/07/08 00:14:44;;;;;;;0.80;0.60;;;26.60;46.60;;;;;;5085141;28;20040;-72
2021/07/08 00:17:10;;;;;;;3.63;1.23;;;26.60;46.90;;;;;;5080830;28;20024;-72
2021/07/08 00:19:36;;;;;;;2.92;1.00;;;26.60;47.20;;;;;;5079355;28;20020;-72
2021/07/08 00:22:03;;;;;;;0.68;0.52;;;26.60;47.30;;;;;;5068988;28;20104;-72
2021/07/08 00:24:29;;;;;;;0.47;0.47;;;26.60;47.50;;;;;;5091912;28;20021;-72
2021/07/08 00:26:55;;;;;;;1.55;0.85;;;26.50;47.70;;;;;;5082835;28;20027;-72
2021/07/08 00:29:20;;;;;;;1.77;0.88;;;26.50;47.60;;;;;;5084173;28;20102;-72
2021/07/08 00:31:46;;;;;;;2.05;0.98;;;26.50;47.60;;;;;;5089867;28;20078;-72
2021/07/08 00:34:12;;;;;;;1.38;0.88;;;26.50;48.00;;;;;;5076559;28;20033;-72
2021/07/08 00:36:37;;;;;;;0.85;0.70;;;26.40;48.10;;;;;;5080011;28;20020;-72
2021/07/08 00:39:04;;;;;;;2.42;0.60;;;26.40;48.20;;;;;;5086636;28;20024;-73
2021/07/08 00:41:30;;;;;;;1.10;0.73;;;26.30;48.20;;;;;;5087579;28;20317;-72
2021/07/08 00:43:55;;;;;;;2.88;0.82;;;26.30;48.50;;;;;;5079369;28;20405;-72
2021/07/08 00:46:21;;;;;;;1.20;0.80;;;26.20;48.70;;;;;;5090086;28;20036;-72
2021/07/08 00:48:47;;;;;;;2.67;0.70;;;26.20;48.90;;;;;;5079874;28;20099;-72
2021/07/08 00:51:14;;;;;;;1.20;0.80;;;26.10;48.90;;;;;;5083021;28;20040;-73
2021/07/08 00:53:40;;;;;;;2.22;1.10;;;26.10;49.10;;;;;;5087655;28;20020;-73
2021/07/08 00:56:07;;;;;;;1.27;0.88;;;26.10;49.30;;;;;;5078267;28;20025;-71
2021/07/08 00:58:33;;;;;;;0.60;0.60;;;26.00;49.60;;;;;;5090251;28;20016;-73
2021/07/08 01:00:59;;;;;;;0.90;0.80;;;26.00;49.20;;;;;;5082499;28;20020;-71
2021/07/08 01:03:26;;;;;;;3.13;0.82;;;26.00;49.10;;;;;;5080764;28;20500;-74
2021/07/08 01:05:54;;;;;;;1.17;0.90;;;26.00;49.10;;;;;;5088625;28;20415;-71
2021/07/08 01:08:20;;;;;;;0.88;0.77;;;25.90;49.10;;;;;;5077731;28;20040;-73
2021/07/08 01:10:49;;;;;;;3.08;0.80;;;25.90;48.90;;;;;;5087265;28;20052;-71
2021/07/08 01:13:19;;;;;;;1.17;0.80;;;25.90;49.40;;;;;;5082656;28;20029;-71
2021/07/08 01:15:45;;;;;;;1.90;0.70;;;25.90;49.50;;;;;;5087618;28;20024;-74
2021/07/08 01:18:12;;;;;;;0.90;0.70;;;25.90;49.70;;;;;;5077635;28;20070;-74
2021/07/08 01:20:39;;;;;;;1.80;0.80;;;25.90;49.60;;;;;;5076752;28;20470;-73
2021/07/08 01:23:05;;;;;;;1.33;0.90;;;25.90;49.80;;;;;;5070622;28;20106;-71
2021/07/08 01:25:35;;;;;;;0.65;0.60;;;25.90;50.30;;;;;;5080385;28;20394;-71
2021/07/08 01:28:03;;;;;;;0.75;0.70;;;25.90;51.00;;;;;;5090678;28;20354;-73
2021/07/08 01:30:29;;;;;;;3.67;1.00;;;25.90;51.40;;;;;;5077295;28;20020;-71
2021/07/08 01:32:56;;;;;;;4.00;1.05;;;25.90;51.90;;;;;;5077131;28;20035;-71
2021/07/08 01:35:22;;;;;;;2.35;1.20;;;25.80;52.70;;;;;;5082603;28;20020;-71
2021/07/08 01:37:48;;;;;;;3.65;0.75;;;25.80;53.10;;;;;;5073941;28;20032;-71
2021/07/08 01:40:16;;;;;;;1.23;0.77;;;25.60;54.50;;;;;;5090446;28;20484;-71
2021/07/08 01:42:42;;;;;;;1.38;0.88;;;25.60;54.30;;;;;;5077417;28;20023;-71
2021/07/08 01:45:08;;;;;;;1.50;0.80;;;25.50;54.10;;;;;;5084607;28;20021;-72
2021/07/08 01:47:34;;;;;;;1.48;0.90;;;25.40;54.10;;;;;;5085287;28;20028;-71
2021/07/08 01:50:00;;;;;;;1.45;0.80;;;25.30;54.70;;;;;;5076925;28;20154;-71
2021/07/08 01:52:26;;;;;;;1.98;0.70;;;25.20;54.70;;;;;;5066461;28;20065;-71
2021/07/08 01:54:52;;;;;;;0.77;0.75;;;25.10;55.00;;;;;;5086585;28;20513;-71
2021/07/08 01:57:18;;;;;;;0.80;0.68;;;25.00;54.80;;;;;;5084529;28;20381;-71
2021/07/08 01:59:44;;;;;;;1.10;0.70;;;24.90;54.90;;;;;;5077455;28;20125;-74
2021/07/08 02:02:10;;;;;;;2.63;0.60;;;24.80;54.90;;;;;;5089005;28;20027;-71
2021/07/08 02:04:36;;;;;;;0.70;0.70;;;24.70;55.00;;;;;;5078454;28;20439;-73
2021/07/08 02:07:02;;;;;;;0.75;0.70;;;24.60;55.40;;;;;;5076862;28;20021;-71
2021/07/08 02:09:30;;;;;;;1.90;1.05;;;24.60;55.60;;;;;;5077764;28;20024;-71
2021/07/08 02:11:58;;;;;;;2.22;0.75;;;24.50;56.00;;;;;;5077302;28;20070;-72
2021/07/08 02:14:24;;;;;;;1.00;0.90;;;24.40;56.30;;;;;;5089792;28;20025;-71
2021/07/08 02:16:50;;;;;;;1.88;1.00;;;24.40;56.50;;;;;;5080733;28;20015;-71
2021/07/08 02:19:16;;;;;;;1.92;0.80;;;24.30;56.80;;;;;;5073554;28;20017;-71
2021/07/08 02:21:41;;;;;;;2.55;1.15;;;24.30;56.80;;;;;;5055695;28;20479;-71
2021/07/08 02:24:07;;;;;;;2.47;0.95;;;24.30;57.00;;;;;;5088150;28;20106;-71
2021/07/08 02:26:33;;;;;;;1.90;1.10;;;24.30;57.00;;;;;;5078578;28;20095;-71
2021/07/08 02:28:59;;;;;;;1.13;0.80;;;24.30;56.80;;;;;;5075476;28;20027;-71
2021/07/08 02:31:24;;;;;;;2.08;0.90;;;24.30;56.80;;;;;;5082293;28;20052;-71
2021/07/08 02:33:50;;;;;;;3.35;0.80;;;24.20;57.00;;;;;;5089207;28;20047;-71
2021/07/08 02:36:16;;;;;;;1.38;0.85;;;24.30;57.20;;;;;;5077279;28;20021;-71
2021/07/08 02:38:42;;;;;;;2.47;0.90;;;24.20;57.30;;;;;;5088178;28;20078;-71
2021/07/08 02:41:08;;;;;;;3.95;1.20;;;24.30;57.30;;;;;;5083099;28;20546;-72
2021/07/08 02:43:34;;;;;;;0.85;0.82;;;24.30;57.30;;;;;;5079276;28;20466;-71
2021/07/08 02:46:00;;;;;;;1.45;0.95;;;24.20;57.10;;;;;;5090195;28;20042;-74
2021/07/08 02:48:26;;;;;;;1.77;0.98;;;24.20;56.80;;;;;;5055646;28;20024;-74
2021/07/08 02:50:54;;;;;;;1.08;0.90;;;24.20;56.90;;;;;;5068772;28;20040;-72
2021/07/08 02:53:21;;;;;;;1.77;1.17;;;24.30;57.40;;;;;;5075307;28;20028;-72
2021/07/08 02:55:47;;;;;;;0.85;0.73;;;24.20;56.60;;;;;;5077952;28;20040;-72
2021/07/08 02:58:13;;;;;;;1.33;0.70;;;24.20;56.30;;;;;;5088006;28;20464;-72
2021/07/08 03:00:40;;;;;;;1.25;0.80;;;24.30;56.40;;;;;;5078717;28;20051;-72
2021/07/08 03:03:06;;;;;;;1.10;0.75;;;24.20;56.40;;;;;;5083107;28;20025;-72
2021/07/08 03:05:32;;;;;;;0.90;0.80;;;24.20;56.40;;;;;;5086243;28;20035;-72
2021/07/08 03:07:58;;;;;;;0.80;0.77;;;24.20;56.30;;;;;;5077018;28;20029;-71
2021/07/08 03:10:26;;;;;;;1.20;0.70;;;24.20;56.20;;;;;;5089730;28;20408;-72
2021/07/08 03:12:52;;;;;;;4.50;0.80;;;24.20;56.10;;;;;;5079002;28;20111;-72
2021/07/08 03:15:19;;;;;;;0.73;0.68;;;24.10;56.00;;;;;;5082376;28;20594;-72
2021/07/08 03:17:45;;;;;;;1.00;0.60;;;24.10;56.00;;;;;;5061703;28;20029;-72
2021/07/08 03:20:20;;;;;;;0.77;0.60;;;24.10;55.80;;;;;;5086458;28;20081;-72
2021/07/08 03:22:47;;;;;;;4.13;0.60;;;24.10;55.80;;;;;;5085629;28;20055;-72
2021/07/08 03:25:15;;;;;;;0.98;0.65;;;24.10;55.80;;;;;;5082767;28;20393;-72
2021/07/08 03:27:41;;;;;;;0.57;0.50;;;24.10;55.70;;;;;;5078679;28;20020;-72
2021/07/08 03:30:10;;;;;;;1.15;0.63;;;24.10;55.80;;;;;;5088195;28;20496;-71
2021/07/08 03:32:36;;;;;;;1.27;0.70;;;24.10;55.80;;;;;;5077581;28;20097;-71
2021/07/08 03:35:03;;;;;;;1.30;0.70;;;24.10;55.90;;;;;;5084354;28;20028;-72
2021/07/08 03:37:29;;;;;;;3.63;0.70;;;24.10;55.80;;;;;;5084874;28;20164;-72
2021/07/08 03:39:55;;;;;;;5.68;0.90;;;24.10;55.80;;;;;;5076815;28;20095;-72
2021/07/08 03:42:21;;;;;;;0.90;0.70;;;24.10;55.80;;;;;;5089220;28;20047;-72
2021/07/08 03:44:46;;;;;;;1.52;0.77;;;24.10;55.70;;;;;;5072340;28;20020;-72
2021/07/08 03:47:12;;;;;;;1.40;0.77;;;24.10;55.70;;;;;;5082501;28;20419;-71
2021/07/08 03:49:38;;;;;;;1.27;0.55;;;24.10;55.60;;;;;;5078851;28;20102;-72
2021/07/08 03:52:04;;;;;;;0.85;0.63;;;24.10;55.60;;;;;;5072612;28;20040;-71
2021/07/08 03:54:30;;;;;;;2.25;0.73;;;24.10;55.60;;;;;;5087814;28;20022;-72
2021/07/08 03:56:56;;;;;;;0.52;0.52;;;24.10;55.70;;;;;;5080266;28;20094;-72
2021/07/08 03:59:21;;;;;;;1.45;0.63;;;24.10;55.60;;;;;;5081215;28;20021;-72
2021/07/08 04:01:47;;;;;;;3.33;0.88;;;24.10;55.80;;;;;;5087187;28;20028;-71
2021/07/08 04:04:13;;;;;;;1.02;0.68;;;24.00;55.70;;;;;;5075732;28;20035;-72
2021/07/08 04:06:39;;;;;;;1.77;0.82;;;24.00;56.00;;;;;;5063146;28;20034;-72
2021/07/08 04:09:04;;;;;;;2.08;1.00;;;24.00;56.00;;;;;;5083519;28;20036;-72
2021/07/08 04:11:30;;;;;;;3.42;0.85;;;24.00;56.20;;;;;;5084630;28;20024;-72
2021/07/08 04:13:57;;;;;;;0.90;0.70;;;24.00;56.20;;;;;;5076244;28;20067;-72
2021/07/08 04:16:22;;;;;;;0.88;0.70;;;24.00;56.10;;;;;;5080669;28;20019;-72
2021/07/08 04:18:48;;;;;;;1.00;0.68;;;24.00;56.20;;;;;;5085685;28;20017;-72
2021/07/08 04:21:14;;;;;;;1.38;0.75;;;24.00;56.20;;;;;;5081688;28;20058;-72
2021/07/08 04:23:40;;;;;;;2.25;1.10;;;24.00;56.30;;;;;;5077105;28;20502;-72
2021/07/08 04:26:06;;;;;;;4.50;1.27;;;24.00;56.40;;;;;;5088749;28;20149;-72
2021/07/08 04:28:32;;;;;;;1.38;0.77;;;24.00;56.10;;;;;;5076576;28;20497;-72
2021/07/08 04:30:58;;;;;;;1.85;0.90;;;24.00;56.10;;;;;;5084199;28;20020;-72
2021/07/08 04:33:25;;;;;;;3.60;1.33;;;24.10;56.10;;;;;;5064367;28;20513;-72
2021/07/08 04:35:51;;;;;;;1.55;1.08;;;24.10;56.00;;;;;;5081153;28;20362;-72
2021/07/08 04:38:17;;;;;;;1.15;0.98;;;24.10;55.80;;;;;;5075371;28;20016;-73
2021/07/08 04:40:43;;;;;;;1.63;1.13;;;24.20;55.90;;;;;;5086283;28;20024;-72
2021/07/08 04:43:12;;;;;;;4.25;1.05;;;24.20;55.80;;;;;;5080195;28;20020;-72
2021/07/08 04:45:38;;;;;;;1.42;1.00;;;24.30;55.80;;;;;;5078579;28;20020;-72
2021/07/08 04:48:05;;;;;;;2.13;1.38;;;24.30;55.70;;;;;;5060011;28;20029;-72
2021/07/08 04:50:31;;;;;;;3.25;0.98;;;24.30;55.60;;;;;;5085416;28;20513;-72
2021/07/08 04:52:57;;;;;;;1.08;0.90;;;24.40;55.60;;;;;;5076402;28;20024;-72
2021/07/08 04:55:24;;;;;;;1.80;1.17;;;24.40;55.40;;;;;;5080447;28;20024;-73
2021/07/08 04:57:51;;;;;;;2.40;1.20;;;24.50;55.30;;;;;;5086826;28;20021;-72
2021/07/08 05:00:19;;;;;;;2.35;1.20;;;24.50;55.10;;;;;;5075231;28;20408;-72
2021/07/08 05:02:47;;;;;;;3.13;1.00;;;24.50;55.10;;;;;;5084481;28;20549;-72
2021/07/08 05:05:13;;;;;;;1.27;1.02;;;24.50;54.90;;;;;;5082347;28;20074;-72
2021/07/08 05:07:39;;;;;;;1.10;0.95;;;24.60;55.00;;;;;;5081810;28;20383;-73
2021/07/08 05:10:12;;;;;;;1.65;1.00;;;24.70;54.90;;;;;;5090680;28;20133;-72
2021/07/08 05:12:37;;;;;;;2.88;0.98;;;24.70;54.80;;;;;;5080543;28;20017;-72
2021/07/08 05:15:10;;;;;;;1.20;0.80;;;24.80;54.60;;;;;;5094376;28;20347;-73
2021/07/08 05:17:36;;;;;;;1.70;0.77;;;24.80;54.60;;;;;;5081325;28;20359;-72
2021/07/08 05:20:03;;;;;;;1.38;1.08;;;24.90;54.20;;;;;;5071010;28;20074;-72
2021/07/08 05:22:36;;;;;;;2.03;0.93;;;24.90;54.30;;;;;;5063068;28;20031;-73
2021/07/08 05:25:03;;;;;;;3.72;1.17;;;24.90;54.10;;;;;;5086817;28;20020;-72
2021/07/08 05:27:32;;;;;;;4.25;1.30;;;25.00;54.20;;;;;;5087291;28;20028;-72
2021/07/08 05:29:59;;;;;;;2.10;1.17;;;25.00;54.00;;;;;;5064530;28;20123;-72
2021/07/08 05:32:25;;;;;;;3.83;1.10;;;25.10;53.90;;;;;;5091498;28;20020;-72
2021/07/08 05:34:51;;;;;;;2.80;1.08;;;25.20;54.00;;;;;;5081935;28;20016;-72
2021/07/08 05:37:16;;;;;;;2.17;1.00;;;25.20;53.80;;;;;;5084181;28;20044;-72
2021/07/08 05:39:42;;;;;;;2.42;1.10;;;25.30;53.70;;;;;;5089047;28;20024;-72
2021/07/08 05:42:08;;;;;;;2.70;1.20;;;25.30;53.40;;;;;;5075156;28;20077;-72
2021/07/08 05:44:34;;;;;;;1.02;0.90;;;25.40;53.10;;;;;;5079056;28;20378;-72
2021/07/08 05:47:00;;;;;;;1.65;0.90;;;25.50;53.00;;;;;;5084813;28;20408;-72
2021/07/08 05:49:25;;;;;;;1.83;1.17;;;25.50;53.00;;;;;;5084606;28;20123;-72
2021/07/08 05:51:51;;;;;;;2.50;0.85;;;25.50;52.80;;;;;;5075797;28;20120;-72
2021/07/08 05:54:17;;;;;;;1.55;0.90;;;25.60;52.80;;;;;;5089788;28;20028;-72
2021/07/08 05:56:42;;;;;;;1.55;0.77;;;25.70;52.60;;;;;;5074540;28;20083;-72
2021/07/08 05:59:08;;;;;;;2.53;1.10;;;25.70;52.70;;;;;;5063405;28;20028;-73
2021/07/08 06:01:34;;;;;;;1.27;0.90;;;25.80;52.60;;;;;;5064776;28;20033;-73
2021/07/08 06:04:00;;;;;;;1.98;1.45;;;25.80;52.50;;;;;;5088459;28;20039;-73
2021/07/08 06:06:26;;;;;;;1.80;1.17;;;25.90;52.30;;;;;;5061582;28;20027;-73
2021/07/08 06:08:52;;;;;;;1.67;0.88;;;26.00;52.10;;;;;;5087114;28;20498;-73
2021/07/08 06:11:18;;;;;;;1.65;0.93;;;26.00;51.80;;;;;;5084702;28;20059;-73
2021/07/08 06:13:44;;;;;;;1.70;0.95;;;26.10;51.60;;;;;;5064380;28;20478;-73
2021/07/08 06:16:10;;;;;;;3.13;1.25;;;26.10;51.90;;;;;;5060076;28;20108;-73
2021/07/08 06:18:36;;;;;;;1.38;1.05;;;26.20;51.80;;;;;;5066487;28;20016;-73
2021/07/08 06:21:03;;;;;;;2.00;1.25;;;26.30;51.70;;;;;;5088895;28;20016;-72
2021/07/08 06:23:30;;;;;;;2.10;1.13;;;26.30;51.40;;;;;;5089051;28;20032;-72
2021/07/08 06:25:57;;;;;;;2.80;1.55;;;26.40;50.90;;;;;;5077744;28;20032;-72
2021/07/08 06:28:23;;;;;;;2.92;1.42;;;26.50;51.10;;;;;;5090501;28;20032;-73
2021/07/08 06:30:49;;;;;;;1.77;1.10;;;26.50;50.60;;;;;;5080634;28;20028;-73
2021/07/08 06:33:15;;;;;;;2.80;1.20;;;26.60;50.50;;;;;;5083170;28;20429;-73
2021/07/08 06:35:41;;;;;;;2.58;1.30;;;26.60;50.10;;;;;;5081055;28;20017;-73
2021/07/08 06:38:07;;;;;;;2.92;1.45;;;26.70;50.00;;;;;;5086385;28;20028;-73
2021/07/08 06:40:33;;;;;;;2.25;1.17;;;26.70;50.10;;;;;;5077928;28;20085;-73
2021/07/08 06:43:00;;;;;;;2.75;1.00;;;26.80;49.80;;;;;;5069217;28;20059;-73
2021/07/08 06:45:27;;;;;;;1.77;1.05;;;26.90;49.90;;;;;;5076485;28;20060;-73
2021/07/08 06:48:02;;;;;;;2.65;1.33;;;26.90;49.80;;;;;;5075777;28;20115;-73
2021/07/08 06:50:36;;;;;;;1.75;1.25;;;27.00;49.50;;;;;;5066739;28;20069;-73
2021/07/08 06:53:03;;;;;;;4.75;2.25;;;27.10;49.40;;;;;;5077071;28;20118;-73
2021/07/08 06:55:29;;;;;;;1.20;1.00;;;27.10;49.00;;;;;;5078793;28;20432;-73
2021/07/08 06:57:55;;;;;;;2.33;1.40;;;27.20;48.80;;;;;;5081811;28;20025;-73
2021/07/08 07:00:33;;;;;;;3.83;1.30;;;27.20;48.50;;;;;;5087124;28;20052;-73
2021/07/08 07:02:59;;;;;;;1.58;1.17;;;27.30;47.80;;;;;;5058059;28;20413;-73
2021/07/08 07:05:27;;;;;;;2.80;1.17;;;27.30;48.10;;;;;;5068605;28;20029;-73
2021/07/08 07:07:54;;;;;;;1.90;1.15;;;27.40;48.30;;;;;;5071869;28;20433;-73
2021/07/08 07:10:21;;;;;;;2.47;1.13;;;27.40;48.00;;;;;;5074335;28;20036;-73
2021/07/08 07:12:49;;;;;;;3.30;0.90;;;27.50;47.80;;;;;;5069272;28;20025;-72
2021/07/08 07:15:17;;;;;;;0.82;0.82;;;27.50;48.00;;;;;;5056066;28;20108;-73
2021/07/08 07:17:44;;;;;;;1.92;1.15;;;27.60;47.50;;;;;;5082521;28;20016;-73
2021/07/08 07:20:11;;;;;;;1.48;0.82;;;27.70;47.40;;;;;;5087509;28;20431;-73
2021/07/08 07:22:38;;;;;;;2.25;1.42;;;27.70;47.60;;;;;;5080344;28;20024;-73
2021/07/08 07:25:05;;;;;;;2.92;1.00;;;27.70;47.60;;;;;;5071392;28;20063;-73
2021/07/08 07:27:32;;;;;;;2.50;1.25;;;27.80;47.00;;;;;;5069519;28;20020;-73
2021/07/08 07:30:02;;;;;;;1.58;1.00;;;27.80;46.90;;;;;;5066737;28;20064;-73
2021/07/08 07:32:29;;;;;;;2.83;1.10;;;27.90;47.20;;;;;;5058063;28;20043;-73
2021/07/08 07:34:55;;;;;;;4.38;1.30;;;27.90;46.90;;;;;;5074936;28;20032;-73
2021/07/08 07:37:20;;;;;;;1.38;1.00;;;28.00;46.50;;;;;;5081016;28;20024;-73
2021/07/08 07:39:46;;;;;;;2.05;1.20;;;28.00;46.70;;;;;;5077028;28;20024;-73
2021/07/08 07:42:12;;;;;;;4.63;1.05;;;28.10;46.20;;;;;;5068377;28;20146;-73
2021/07/08 07:44:43;;;;;;;1.45;1.10;;;28.10;45.90;;;;;;5050505;28;20065;-73
2021/07/08 07:47:09;;;;;;;2.35;0.85;;;28.20;45.90;;;;;;5069265;28;20035;-73
2021/07/08 07:49:35;;;;;;;1.73;0.98;;;28.20;46.10;;;;;;5086654;28;20028;-73
2021/07/08 07:52:01;;;;;;;1.58;1.17;;;28.30;46.40;;;;;;5073202;28;20048;-73
2021/07/08 07:54:28;;;;;;;3.10;1.05;;;28.40;46.30;;;;;;5086419;28;20017;-73
2021/07/08 07:56:54;;;;;;;1.83;1.30;;;28.40;46.20;;;;;;5068402;28;20020;-73
2021/07/08 07:59:20;;;;;;;2.25;1.23;;;28.50;45.90;;;;;;5082498;28;20378;-73
2021/07/08 08:01:46;;;;;;;2.20;1.27;;;28.60;46.20;;;;;;5074996;28;20059;-73
2021/07/08 08:04:11;;;;;;;5.30;1.58;;;28.60;45.90;;;;;;5060628;28;20041;-73
2021/07/08 08:09:21;;;;;;;;;;;28.70;45.50;;;;;;5070446;28;20355;-73
2021/07/08 08:11:47;;;;;;;1.98;1.08;;;28.80;46.40;;;;;;5055940;28;19908;-73
2021/07/08 08:14:12;;;;;;;2.22;1.17;;;28.90;45.70;;;;;;5069380;28;20029;-73
2021/07/08 08:16:38;;;;;;;1.65;1.35;;;29.00;45.70;;;;;;5062113;28;20013;-73
2021/07/08 08:19:04;;;;;;;1.65;1.20;;;29.00;45.60;;;;;;5051482;28;20061;-72
2021/07/08 08:21:30;;;;;;;9.80;1.23;;;29.10;45.50;;;;;;5050091;28;20029;-73
2021/07/08 08:23:55;;;;;;;3.65;1.25;;;29.10;45.10;;;;;;5051519;28;20025;-73
2021/07/08 08:26:21;;;;;;;3.58;1.20;;;29.20;44.90;;;;;;5054728;28;20421;-73
2021/07/08 08:28:51;;;;;;;1.38;0.90;;;29.20;44.50;;;;;;5049810;28;20021;-73
2021/07/08 08:31:16;;;;;;;1.73;0.90;;;29.20;44.70;;;;;;5052027;28;20017;-73
2021/07/08 08:33:42;;;;;;;2.10;1.15;;;29.30;44.80;;;;;;5066498;28;20082;-72
2021/07/08 08:36:08;;;;;;;2.22;1.67;;;29.30;44.90;;;;;;5071850;28;20039;-72
2021/07/08 08:38:34;;;;;;;1.65;0.95;;;29.40;45.10;;;;;;5070308;28;20027;-73
2021/07/08 08:40:59;;;;;;;1.10;1.00;;;29.50;45.00;;;;;;5055909;28;20532;-73
2021/07/08 08:43:25;;;;;;;1.20;1.10;;;29.50;44.90;;;;;;5066104;28;20136;-73
2021/07/08 08:45:51;;;;;;;1.77;1.23;;;29.60;44.50;;;;;;5057347;28;20428;-72
2021/07/08 08:48:17;;;;;;;1.20;1.10;;;29.60;44.20;;;;;;5065509;28;20410;-72
2021/07/08 08:50:45;;;;;;;1.77;1.23;;;29.70;44.40;;;;;;5065986;28;20406;-73
2021/07/08 08:53:13;;;;;;;2.20;1.02;;;29.70;44.20;;;;;;5059915;28;20029;-72
2021/07/08 08:55:40;;;;;;;2.25;1.20;;;29.80;44.40;;;;;;5069447;28;20021;-72
2021/07/08 08:58:08;;;;;;;3.17;1.30;;;29.80;44.50;;;;;;5063934;28;20032;-71
2021/07/08 09:00:48;;;;;;;2.70;1.00;;;29.90;44.10;;;;;;5052765;28;20390;-71
2021/07/08 09:03:20;;;;;;;2.83;1.33;;;30.00;44.20;;;;;;5057234;28;20021;-72
2021/07/08 09:06:07;;;;;;;2.15;1.40;;;30.00;44.30;;;;;;5057397;28;20028;-71
2021/07/08 09:08:35;;;;;;;1.70;1.35;;;30.10;43.90;;;;;;5057377;28;20024;-73
2021/07/08 09:11:01;;;;;;;1.48;1.02;;;30.10;44.10;;;;;;5068621;28;20032;-72
2021/07/08 09:13:54;;;;;;;2.05;1.13;;;30.20;43.90;;;;;;5075375;28;20425;-73
2021/07/08 09:16:23;;;;;;;2.10;1.20;;;30.30;43.50;;;;;;5070006;28;20033;-73
2021/07/08 09:19:01;;;;;;;2.67;1.38;;;30.30;43.60;;;;;;5069644;28;20024;-73
2021/07/08 09:21:27;;;;;;;2.17;1.02;;;30.40;43.80;;;;;;5058913;28;20029;-73
2021/07/08 09:24:12;;;;;;;1.27;1.10;;;30.50;43.60;;;;;;5061495;28;20374;-73
2021/07/08 09:26:41;;;;;;;3.72;1.20;;;30.50;43.00;;;;;;5073880;28;20425;-73
2021/07/08 09:29:18;;;;;;;3.83;1.60;;;30.50;43.50;;;;;;5075268;28;20016;-73
2021/07/08 09:31:53;;;;;;;1.48;1.15;;;30.60;43.50;;;;;;5057529;28;20482;-73
2021/07/08 09:34:23;;;;;;;1.58;1.20;;;30.70;43.60;;;;;;5073617;28;20032;-73
2021/07/08 09:37:01;;;;;;;0.80;0.75;;;30.70;43.00;;;;;;5073870;28;20016;-73
2021/07/08 09:39:46;;;;;;;2.72;1.60;;;30.80;42.90;;;;;;5073562;28;20381;-71
2021/07/08 09:42:15;;;;;;;1.65;1.10;;;30.90;42.90;;;;;;5075086;28;20032;-71
2021/07/08 09:44:41;;;;;;;3.58;1.60;;;30.90;42.60;;;;;;5075011;28;20012;-71
2021/07/08 09:47:25;;;;;;;3.83;1.60;;;31.00;42.60;;;;;;5069274;28;20071;-71
2021/07/08 09:49:51;;;;;;;2.17;1.27;;;31.00;42.60;;;;;;5056991;28;20116;-72
2021/07/08 09:52:17;;;;;;;4.03;2.35;;;31.00;42.20;;;;;;5057738;28;20033;-71
2021/07/08 09:57:32;;;;;;;1.45;0.90;;;31.10;42.10;;;;;;5057723;28;20119;-71
2021/07/08 09:59:58;;;;;;;1.30;1.08;;;31.20;42.60;;;;;;5074737;28;20029;-71
2021/07/08 10:02:35;;;;;;;2.17;1.55;;;31.30;41.90;;;;;;5083054;28;20137;-71
2021/07/08 10:05:01;;;;;;;2.55;1.35;;;31.30;41.70;;;;;;5085017;28;20048;-71
2021/07/08 10:07:28;;;;;;;2.88;1.88;;;31.30;41.90;;;;;;5056566;28;20356;-71
2021/07/08 10:09:54;;;;;;;2.90;1.90;;;31.40;41.80;;;;;;5053963;28;20078;-72
2021/07/08 10:12:21;;;;;;;6.15;2.40;;;31.40;41.80;;;;;;5053047;28;20025;-71
2021/07/08 10:14:48;;;;;;;5.18;1.80;;;31.50;42.10;;;;;;5054432;28;20466;-71
2021/07/08 10:17:19;;;;;;;1.42;1.33;;;31.60;42.00;;;;;;5054416;28;20013;-71
2021/07/08 10:19:47;;;;;;;2.90;1.85;;;31.60;41.60;;;;;;5054155;28;20021;-71
2021/07/08 10:22:14;;;;;;;3.67;1.50;;;31.70;41.30;;;;;;5065854;28;20069;-72
2021/07/08 10:24:40;;;;;;;1.83;1.30;;;31.80;41.80;;;;;;5074350;28;20367;-71
2021/07/08 10:27:08;;;;;;;1.42;1.33;;;31.90;41.30;;;;;;5059169;28;20550;-71
2021/07/08 10:29:38;;;;;;;1.05;1.00;;;31.90;40.70;;;;;;5054504;28;20455;-71
2021/07/08 10:32:06;;;;;;;3.22;1.58;;;32.00;40.70;;;;;;5053804;28;20017;-71
2021/07/08 10:34:43;;;;;;;10.45;2.05;;;32.00;40.10;;;;;;5058372;28;20131;-71
2021/07/08 10:37:09;;;;;;;1.65;1.30;;;32.00;40.20;;;;;;5062964;28;20478;-72
2021/07/08 10:39:43;;;;;;;1.80;1.50;;;32.10;40.20;;;;;;5053941;28;20036;-71
2021/07/08 10:42:09;;;;;;;4.30;1.60;;;32.10;40.10;;;;;;5053810;28;20021;-72
2021/07/08 10:44:43;;;;;;;1.58;1.40;;;32.20;39.90;;;;;;5053739;28;20379;-72
2021/07/08 10:47:44;;;;;;;5.47;1.70;;;32.10;39.80;;;;;;5053640;28;20081;-72
2021/07/08 10:50:36;;;;;;;1.85;1.42;;;32.20;40.30;;;;;;5040520;28;20045;-72
2021/07/08 10:53:15;;;;;;;1.73;1.63;;;32.30;40.30;;;;;;5071471;28;20036;-72
2021/07/08 10:55:47;;;;;;;3.22;1.73;;;32.30;39.90;;;;;;5071555;28;20029;-72
2021/07/08 10:58:42;;;;;;;8.18;2.55;;;32.40;39.90;;;;;;5056702;28;20087;-72
2021/07/08 11:01:29;;;;;;;4.32;1.90;;;32.50;39.70;;;;;;5051367;28;20556;-72
2021/07/08 11:03:59;;;;;;;4.85;2.17;;;32.60;39.70;;;;;;5050448;28;20537;-72
2021/07/08 11:06:28;;;;;;;2.25;1.60;;;32.60;39.50;;;;;;5051269;28;20029;-73
2021/07/08 11:08:57;;;;;;;2.67;2.20;;;32.70;39.70;;;;;;5051535;28;20513;-72
2021/07/08 11:11:23;;;;;;;5.55;2.15;;;32.70;39.40;;;;;;5051215;28;20372;-72
2021/07/08 11:13:50;;;;;;;3.03;2.28;;;32.80;39.50;;;;;;5034360;28;20024;-72
2021/07/08 11:16:47;;;;;;;5.55;2.13;;;32.80;39.80;;;;;;5065254;28;20040;-77
2021/07/08 11:19:35;;;;;;;5.63;2.50;;;33.00;39.70;;;;;;5050322;28;20187;-76
2021/07/08 11:22:07;;;;;;;1.60;1.45;;;33.00;39.50;;;;;;5057518;28;20055;-76
2021/07/08 11:24:39;;;;;;;2.05;1.42;;;33.10;39.70;;;;;;5052741;28;20036;-76
2021/07/08 11:27:08;;;;;;;3.37;1.57;;;33.20;39.70;;;;;;5052857;28;20090;-76
2021/07/08 11:29:36;;;;;;;2.33;1.63;;;33.30;39.30;;;;;;5051856;28;20082;-75
2021/07/08 11:32:22;;;;;;;11.38;2.08;;;33.30;39.50;;;;;;5052843;28;20021;-76
2021/07/08 11:34:57;;;;;;;3.88;1.83;;;33.30;39.50;;;;;;5051719;28;20033;-75
2021/07/08 11:38:00;;;;;;;5.82;2.33;;;33.30;38.90;;;;;;5051796;28;20445;-76
2021/07/08 11:40:20;;;;;;;5.55;2.67;;;33.30;39.20;;;;;;5053481;28;20390;-76
2021/07/08 11:42:48;;;;;;;8.93;2.42;;;33.20;38.90;;;;;;5052706;28;20028;-75
2021/07/08 11:45:19;;;;;;;12.27;3.00;;;33.20;39.30;;;;;;5052866;28;20027;-76
2021/07/08 11:47:53;;;;;;;5.13;2.30;;;33.20;39.00;;;;;;5052655;28;20052;-76
2021/07/08 11:50:27;;;;;;;7.97;3.05;;;33.20;39.00;;;;;;5052354;28;20143;-76
2021/07/08 11:53:17;;;;;;;4.35;2.30;;;33.20;38.80;;;;;;5051345;28;20025;-76
2021/07/08 11:55:48;;;;;;;3.97;1.92;;;33.30;39.20;;;;;;5052736;28;20013;-76
2021/07/08 11:58:21;;;;;;;9.63;2.88;;;33.30;38.40;;;;;;5052748;28;20017;-77
2021/07/08 12:00:49;;;;;;;6.03;2.30;;;33.30;38.30;;;;;;5057533;28;20411;-77
2021/07/08 12:03:32;;;;;;;2.40;1.65;;;33.40;38.30;;;;;;5090154;28;20501;-76
2021/07/08 12:06:18;;;;;;;3.88;2.33;;;33.30;38.50;;;;;;5059625;28;20383;-76
2021/07/08 12:08:51;;;;;;;3.45;1.90;;;33.40;38.60;;;;;;5051804;28;20049;-76
2021/07/08 12:11:24;;;;;;;4.53;2.22;;;33.50;38.80;;;;;;5051347;28;20018;-76
2021/07/08 12:13:57;;;;;;;2.17;1.73;;;33.50;38.30;;;;;;5051209;28;20037;-76
2021/07/08 12:16:31;;;;;;;2.40;2.00;;;33.40;38.40;;;;;;5051836;28;20025;-76
2021/07/08 12:18:59;;;;;;;3.58;1.75;;;33.40;38.50;;;;;;5052497;28;20025;-76
2021/07/08 12:21:27;;;;;;;4.40;2.05;;;33.30;38.40;;;;;;5051016;28;20086;-75
2021/07/08 12:23:59;;;;;;;5.35;2.10;;;33.10;38.40;;;;;;5052299;28;20041;-76
2021/07/08 12:26:36;;;;;;;60.95;9.93;;;32.90;41.30;;;;;;5052355;28;20025;-75
2021/07/08 12:29:25;;;;;;;42.30;6.47;;;32.30;60.20;;;;;;5051031;28;20025;-73
2021/07/08 12:32:03;;;;;;;7.45;3.42;;;31.10;58.90;;;;;;5052206;28;20025;-72
2021/07/08 12:34:36;;;;;;;6.85;3.08;;;29.70;63.70;;;;;;5051993;28;20024;-72
2021/07/08 12:37:19;;;;;;;6.00;3.13;;;28.70;66.20;;;;;;5050811;28;20017;-72
2021/07/08 12:39:52;;;;;;;3.35;2.50;;;28.10;68.50;;;;;;5050678;28;20538;-71
2021/07/08 12:42:20;;;;;;;5.32;3.30;;;27.70;73.00;;;;;;5051970;28;20017;-73
2021/07/08 12:44:51;;;;;;;5.72;3.42;;;27.50;74.20;;;;;;5051933;28;20021;-73
2021/07/08 12:47:18;;;;;;;6.43;3.80;;;27.10;75.20;;;;;;5052067;28;20100;-73
2021/07/08 12:49:47;;;;;;;10.52;3.97;;;26.90;75.20;;;;;;5050235;28;20075;-73
2021/07/08 12:52:13;;;;;;;5.82;3.33;;;26.70;76.70;;;;;;5051669;28;20123;-73
2021/07/08 12:54:39;;;;;;;4.07;3.30;;;26.60;78.70;;;;;;5050300;28;20017;-73
2021/07/08 12:57:10;;;;;;;3.95;3.00;;;26.50;80.00;;;;;;5050560;28;20104;-72
2021/07/08 12:59:57;;;;;;;5.38;3.38;;;26.60;81.30;;;;;;5051894;28;20024;-73